Los Cuates, Texas
Current Conditions -  °F | °C
As of 9:52 AM on Friday 19 Dec 2014 (Local Time) from KHRL Reporting Station
Haze Haze  
Wind Chill: 67°   Ceiling: 700
Heat Index: 67°   Visibility: 5mi
Dew Point: 66°   Wind: 6mph
Humidity: 97%   Direction: 290°WNW
Pressure: 30.01"   Gusts: NA
Location:  26.1784°N, 97.6678°W
Report Text: KHRL 191552Z 29005KT 5SM BR OVC007 19/19 A3001 RMK AO2 SLP163 T01940189
Loading
Personal Weather Stations






























Interactive Weather Map New forecast layout! Learn more

10-Day Weather Forecast

Advertisements
Track Severe Weather on mobile